Hanjin Phoenix — A8CN9 — position and weather

sailwx.info

Track history (hours):
 
Tides and Currents Weather Stations Pressure Air Temp Water Temp Dewpoint Dewpoint Depression Visibility Wind Speed Wind Dir Waves Ship Positions

Hanjin Phoenix

Last reported at 2016-May-28 09:25 UTC. Time now 2016-May-28 09:54 UTC.
Position N 22°03' E 114°25'.

Length 282.1 m; beam 32.2 m; draft 13 m.

Type: Ship (hazmat cat A). MMSI: 636090671.

Date/timePositionNaut miles runAvg speedWind from/ knotsBaromVisibWave heightAir tempDewpointWater temp
2016-May-28 09:25N 22°03' E 114°25'0 0.0
2016-May-28 08:33N 22°03' E 114°25'0 0.0
2016-May-28 07:32N 22°03' E 114°25'0 0.1
2016-May-28 06:28N 22°03' E 114°25'0 0.0
2016-May-28 05:30N 22°03' E 114°25'0 0.0
2016-May-27 22:28N 22°03' E 114°25'0 0.0
2016-May-27 20:29N 22°03' E 114°25'0 0.0
2016-May-27 19:31N 22°03' E 114°25'0 0.0
2016-May-27 18:18N 22°03' E 114°25'0 0.0
2016-May-27 15:05N 22°03' E 114°25'0 0.1
2016-May-27 14:28N 22°03' E 114°25'0 0.0
2016-May-27 13:32N 22°03' E 114°25'0 0.0
2016-May-27 11:24N 22°03' E 114°25'0 0.0
2016-May-27 09:29N 22°03' E 114°25'  
2016-May-24 16:25N 22°03' E 114°25'0 0.0
2016-May-24 10:08N 22°03' E 114°25'0 0.0
2016-May-24 01:23N 22°03' E 114°25'0 0.0
2016-May-23 23:34N 22°03' E 114°25'8 7.8
2016-May-23 22:33N 22°09' E 114°30'1110.7
2016-May-23 21:29N 22°20' E 114°30'19 9.4
2016-May-23 19:30N 22°34' E 114°16'0 0.0
2016-May-23 04:15N 22°34' E 114°16'20 6.6
2016-May-23 01:16N 22°19' E 114°31'  
Track history (hours):
 
Tides and Currents Weather Stations Pressure Air Temp Water Temp Dewpoint Dewpoint Depression Visibility Wind Speed Wind Dir Waves Ship Positions

Hanjin Phoenix

Last reported at 2016-May-28 09:25 UTC. Time now 2016-May-28 09:54 UTC.
Position N 22°03' E 114°25'.

Length 282.1 m; beam 32.2 m; draft 13 m.

Type: Ship (hazmat cat A). MMSI: 636090671.

Date/timePositionNaut miles runAvg speedWind from/ knotsBaromVisibWave heightAir tempDewpointWater temp
2016-May-28 09:25N 22°03' E 114°25'0 0.0
2016-May-28 08:33N 22°03' E 114°25'0 0.0
2016-May-28 07:32N 22°03' E 114°25'0 0.1
2016-May-28 06:28N 22°03' E 114°25'0 0.0
2016-May-28 05:30N 22°03' E 114°25'0 0.0
2016-May-27 22:28N 22°03' E 114°25'0 0.0
2016-May-27 20:29N 22°03' E 114°25'0 0.0
2016-May-27 19:31N 22°03' E 114°25'0 0.0
2016-May-27 18:18N 22°03' E 114°25'0 0.0
2016-May-27 15:05N 22°03' E 114°25'0 0.1
2016-May-27 14:28N 22°03' E 114°25'0 0.0
2016-May-27 13:32N 22°03' E 114°25'0 0.0
2016-May-27 11:24N 22°03' E 114°25'0 0.0
2016-May-27 09:29N 22°03' E 114°25'  
2016-May-24 16:25N 22°03' E 114°25'0 0.0
2016-May-24 10:08N 22°03' E 114°25'0 0.0
2016-May-24 01:23N 22°03' E 114°25'0 0.0
2016-May-23 23:34N 22°03' E 114°25'8 7.8
2016-May-23 22:33N 22°09' E 114°30'1110.7
2016-May-23 21:29N 22°20' E 114°30'19 9.4
2016-May-23 19:30N 22°34' E 114°16'0 0.0
2016-May-23 04:15N 22°34' E 114°16'20 6.6
2016-May-23 01:16N 22°19' E 114°31'  

Dump ship's entire track history